Time;durP1;ratioP1;P1;durP2;ratioP2;P2;SDS_P1;SDS_P2;PMS_P1;PMS_P2;Temp;Humidity;BMP_temperature;BMP_pressure;BME280_temperature;BME280_humidity;BME280_pressure;Samples;Min_cycle;Max_cycle;Signal;HPM_P1;HPM_P2
2021/12/03 00:02:14;;;;;;;22.40;11.43;;;-1.00;99.90;;;;;;5054384;28;20020;-75
2021/12/03 00:04:40;;;;;;;22.00;10.90;;;-1.00;99.90;;;;;;5054681;28;20025;-75
2021/12/03 00:07:05;;;;;;;23.40;10.52;;;-1.00;99.90;;;;;;5054533;28;20127;-75
2021/12/03 00:09:35;;;;;;;22.17;10.55;;;-1.00;99.90;;;;;;5054396;28;20112;-75
2021/12/03 00:12:01;;;;;;;22.63;11.20;;;-1.00;99.90;;;;;;5054500;28;20379;-75
2021/12/03 00:14:27;;;;;;;17.75;10.13;;;-1.00;99.90;;;;;;5053235;28;20404;-75
2021/12/03 00:16:52;;;;;;;20.80;10.82;;;-1.00;99.90;;;;;;5054106;28;20080;-75
2021/12/03 00:19:18;;;;;;;24.02;11.43;;;-1.00;99.90;;;;;;5053834;28;20021;-75
2021/12/03 00:21:44;;;;;;;25.05;10.57;;;-1.10;99.90;;;;;;5054096;28;20069;-75
2021/12/03 00:24:10;;;;;;;16.33;9.88;;;-1.00;99.90;;;;;;5054247;28;20090;-75
2021/12/03 00:26:35;;;;;;;21.65;10.93;;;-1.10;99.90;;;;;;5054132;28;20029;-75
2021/12/03 00:29:01;;;;;;;25.73;11.95;;;-1.10;99.90;;;;;;5054434;28;20108;-75
2021/12/03 00:31:26;;;;;;;19.23;11.57;;;-1.00;99.90;;;;;;5054012;28;20439;-75
2021/12/03 00:33:52;;;;;;;19.70;11.13;;;-1.00;99.90;;;;;;5053692;28;20100;-75
2021/12/03 00:36:18;;;;;;;20.23;11.55;;;-1.00;99.90;;;;;;5053196;28;20113;-75
2021/12/03 00:38:47;;;;;;;24.00;12.23;;;-1.00;99.90;;;;;;5053314;28;20360;-75
2021/12/03 00:41:18;;;;;;;20.33;10.77;;;-1.00;99.90;;;;;;5053870;28;20036;-75
2021/12/03 00:43:46;;;;;;;20.95;12.23;;;-1.00;99.90;;;;;;5053711;28;20048;-75
2021/12/03 00:46:15;;;;;;;23.60;12.07;;;-1.10;99.90;;;;;;5053573;28;20013;-75
2021/12/03 00:48:41;;;;;;;20.50;12.52;;;-1.10;99.90;;;;;;5052350;28;20074;-75
2021/12/03 00:51:08;;;;;;;26.00;12.93;;;-1.00;99.90;;;;;;5053289;28;20025;-75
2021/12/03 00:53:34;;;;;;;21.60;13.00;;;-1.00;99.90;;;;;;5053464;28;20076;-75
2021/12/03 00:56:00;;;;;;;24.42;12.32;;;-1.00;99.90;;;;;;5053418;28;20438;-75
2021/12/03 00:58:25;;;;;;;29.63;12.30;;;-1.00;99.90;;;;;;5051993;28;20029;-75
2021/12/03 01:00:51;;;;;;;26.58;13.02;;;-1.00;99.90;;;;;;5053308;28;20134;-75
2021/12/03 01:03:17;;;;;;;23.25;12.55;;;-1.00;99.90;;;;;;5053551;28;20126;-75
2021/12/03 01:05:42;;;;;;;25.88;12.15;;;-1.00;99.90;;;;;;5053552;28;20017;-76
2021/12/03 01:08:08;;;;;;;22.33;12.75;;;-1.00;99.90;;;;;;5053010;28;20024;-75
2021/12/03 01:10:33;;;;;;;23.65;12.98;;;-1.00;99.90;;;;;;5053176;28;20029;-75
2021/12/03 01:13:00;;;;;;;20.55;12.05;;;-0.90;99.90;;;;;;5052682;28;20024;-75
2021/12/03 01:15:29;;;;;;;22.55;12.05;;;-0.90;99.90;;;;;;5052618;28;20029;-75
2021/12/03 01:17:55;;;;;;;33.25;14.60;;;-0.90;99.90;;;;;;5052640;28;20070;-75
2021/12/03 01:20:22;;;;;;;25.08;12.88;;;-0.90;99.90;;;;;;5053131;28;20031;-75
2021/12/03 01:22:50;;;;;;;30.02;12.73;;;-0.80;99.90;;;;;;5048234;28;20375;-75
2021/12/03 01:25:18;;;;;;;23.10;12.90;;;-0.80;99.90;;;;;;5032691;28;20029;-75
2021/12/03 01:27:45;;;;;;;29.70;14.45;;;-0.80;99.90;;;;;;5048086;28;20033;-75
2021/12/03 01:30:12;;;;;;;30.25;13.45;;;-0.80;99.90;;;;;;5032901;28;20529;-75
2021/12/03 01:32:38;;;;;;;27.15;12.65;;;-0.80;99.90;;;;;;5048039;28;20476;-75
2021/12/03 01:35:05;;;;;;;29.10;14.25;;;-0.80;99.90;;;;;;5032832;28;20036;-75
2021/12/03 01:37:30;;;;;;;33.78;15.35;;;-0.70;99.90;;;;;;5032695;28;20046;-75
2021/12/03 01:39:57;;;;;;;33.75;18.48;;;-0.60;99.90;;;;;;5032582;28;20075;-75
2021/12/03 01:42:23;;;;;;;27.83;14.10;;;-0.30;99.90;;;;;;5032655;28;20893;-75
2021/12/03 01:44:49;;;;;;;32.38;15.63;;;-0.40;99.90;;;;;;5032865;28;20033;-75
2021/12/03 01:47:15;;;;;;;37.05;18.08;;;-0.50;99.90;;;;;;5032689;28;20387;-75
2021/12/03 01:49:40;;;;;;;30.38;15.93;;;-0.40;99.90;;;;;;5031643;28;20098;-75
2021/12/03 01:52:06;;;;;;;39.20;17.85;;;-0.40;99.90;;;;;;5033782;28;20083;-75
2021/12/03 01:54:32;;;;;;;30.48;15.88;;;-0.50;99.90;;;;;;5052545;28;20036;-75
2021/12/03 01:56:58;;;;;;;43.47;18.38;;;-0.50;99.90;;;;;;5052410;28;20055;-75
2021/12/03 01:59:24;;;;;;;39.10;19.02;;;-0.40;99.90;;;;;;5052445;28;20065;-75
2021/12/03 02:01:50;;;;;;;41.42;22.98;;;-0.40;99.90;;;;;;5052346;28;20079;-76
2021/12/03 02:04:15;;;;;;;42.53;20.63;;;-0.40;99.90;;;;;;5052312;28;20094;-75
2021/12/03 02:06:41;;;;;;;41.90;21.02;;;-0.30;99.90;;;;;;5052258;28;20037;-75
2021/12/03 02:09:07;;;;;;;36.67;21.02;;;-0.30;99.90;;;;;;5052509;28;20099;-75
2021/12/03 02:11:33;;;;;;;40.55;22.20;;;-0.20;99.90;;;;;;5052164;28;20032;-75
2021/12/03 02:13:59;;;;;;;48.53;22.15;;;-0.30;99.90;;;;;;5052341;28;20032;-76
2021/12/03 02:16:25;;;;;;;37.45;21.00;;;-0.20;99.90;;;;;;5052417;28;20479;-75
2021/12/03 02:18:52;;;;;;;51.97;24.20;;;-0.20;99.90;;;;;;5052277;28;20064;-75
2021/12/03 02:21:19;;;;;;;41.63;21.35;;;-0.10;99.90;;;;;;5052121;28;20017;-75
2021/12/03 02:23:45;;;;;;;42.85;22.60;;;-0.20;99.90;;;;;;5040112;28;20021;-76
2021/12/03 02:26:13;;;;;;;48.13;22.70;;;-0.10;99.90;;;;;;5030920;28;20061;-76
2021/12/03 02:28:45;;;;;;;46.38;22.35;;;-0.10;99.90;;;;;;5032753;28;20026;-75
2021/12/03 02:31:13;;;;;;;50.58;22.52;;;-0.10;99.90;;;;;;5032161;28;20037;-75
2021/12/03 02:33:38;;;;;;;59.03;24.55;;;0.20;99.90;;;;;;5032163;28;20031;-75
2021/12/03 02:36:05;;;;;;;44.85;22.58;;;0.10;99.90;;;;;;5030791;28;20028;-75
2021/12/03 02:38:31;;;;;;;56.10;24.50;;;0.10;99.90;;;;;;5032266;28;20065;-75
2021/12/03 02:40:58;;;;;;;47.30;22.73;;;0.10;99.90;;;;;;5030823;28;20021;-75
2021/12/03 02:43:24;;;;;;;40.60;21.27;;;0.10;99.90;;;;;;5030953;28;20106;-75
2021/12/03 02:45:51;;;;;;;52.85;24.63;;;0.20;99.90;;;;;;5032307;28;20036;-75
2021/12/03 02:48:19;;;;;;;42.05;22.10;;;0.10;99.90;;;;;;5031113;28;20418;-75
2021/12/03 02:50:44;;;;;;;46.35;21.85;;;0.20;99.90;;;;;;5031943;28;20022;-75
2021/12/03 02:53:10;;;;;;;40.30;20.15;;;0.20;99.90;;;;;;5041737;28;20021;-75
2021/12/03 02:55:36;;;;;;;55.92;24.48;;;0.10;99.90;;;;;;5051775;28;20536;-75
2021/12/03 02:58:03;;;;;;;47.13;21.95;;;0.20;99.90;;;;;;5051922;28;20043;-75
2021/12/03 03:00:29;;;;;;;44.53;21.55;;;0.20;99.90;;;;;;5054003;28;20020;-75
2021/12/03 03:02:56;;;;;;;49.30;22.23;;;0.20;99.90;;;;;;5054435;28;20025;-75
2021/12/03 03:05:24;;;;;;;55.50;22.42;;;0.20;99.90;;;;;;5055752;28;20025;-75
2021/12/03 03:07:51;;;;;;;48.92;22.65;;;0.20;99.90;;;;;;5055544;28;20052;-75
2021/12/03 03:10:22;;;;;;;47.03;21.25;;;0.20;99.90;;;;;;5055837;28;20151;-75
2021/12/03 03:12:48;;;;;;;43.90;20.92;;;0.30;99.90;;;;;;5055613;28;20124;-75
2021/12/03 03:15:16;;;;;;;54.17;24.13;;;0.30;99.90;;;;;;5055687;28;20104;-75
2021/12/03 03:17:43;;;;;;;45.30;21.35;;;0.30;99.90;;;;;;5055577;28;20104;-75
2021/12/03 03:20:10;;;;;;;48.17;20.98;;;0.20;99.90;;;;;;5055356;28;20028;-75
2021/12/03 03:22:37;;;;;;;57.90;22.30;;;0.20;99.90;;;;;;5052799;28;20398;-75
2021/12/03 03:25:05;;;;;;;53.90;24.65;;;0.20;99.90;;;;;;5035427;28;20500;-75
2021/12/03 03:27:31;;;;;;;67.28;24.00;;;0.20;99.90;;;;;;5035605;28;20495;-75
2021/12/03 03:29:57;;;;;;;46.80;21.25;;;0.20;99.90;;;;;;5035374;28;20491;-75
2021/12/03 03:32:23;;;;;;;42.83;20.42;;;0.20;99.90;;;;;;5035323;28;20029;-75
2021/12/03 03:34:49;;;;;;;52.97;22.98;;;0.20;99.90;;;;;;5035324;28;20130;-75
2021/12/03 03:37:15;;;;;;;46.30;20.60;;;0.20;99.90;;;;;;5035243;28;20435;-76
2021/12/03 03:39:42;;;;;;;56.83;24.10;;;0.20;99.90;;;;;;5035342;28;20103;-75
2021/12/03 03:42:08;;;;;;;56.90;22.55;;;0.20;99.90;;;;;;5035046;28;20034;-75
2021/12/03 03:44:34;;;;;;;51.83;23.05;;;0.40;99.90;;;;;;5035078;28;20049;-75
2021/12/03 03:47:04;;;;;;;60.42;23.83;;;0.30;99.90;;;;;;5035215;28;20021;-75
2021/12/03 03:49:31;;;;;;;54.72;22.60;;;0.30;99.90;;;;;;5035321;28;20022;-75
2021/12/03 03:51:57;;;;;;;60.47;24.17;;;0.30;99.90;;;;;;5054974;28;20028;-75
2021/12/03 03:54:23;;;;;;;50.60;22.90;;;0.40;99.90;;;;;;5055308;28;20025;-75
2021/12/03 03:56:49;;;;;;;53.30;21.73;;;0.50;99.90;;;;;;5054952;28;20388;-75
2021/12/03 03:59:17;;;;;;;53.08;22.30;;;0.50;99.90;;;;;;5054937;28;20033;-76
2021/12/03 04:01:44;;;;;;;59.92;24.15;;;0.60;99.90;;;;;;5055013;28;20490;-75
2021/12/03 04:04:11;;;;;;;51.75;21.55;;;0.60;99.90;;;;;;5054846;28;20398;-75
2021/12/03 04:06:36;;;;;;;55.70;22.58;;;0.60;99.90;;;;;;5054799;28;20033;-75
2021/12/03 04:09:02;;;;;;;72.00;26.27;;;0.60;99.90;;;;;;5054543;28;20091;-75
2021/12/03 04:11:28;;;;;;;58.85;24.70;;;0.60;99.90;;;;;;5053155;28;20108;-75
2021/12/03 04:13:53;;;;;;;61.65;24.42;;;0.50;99.90;;;;;;5054206;28;20099;-75
2021/12/03 04:16:19;;;;;;;62.85;25.00;;;0.50;99.90;;;;;;5054166;28;20025;-75
2021/12/03 04:18:47;;;;;;;67.05;26.98;;;0.40;99.90;;;;;;5054092;28;20047;-75
2021/12/03 04:21:13;;;;;;;69.93;26.58;;;0.50;99.90;;;;;;5053982;28;20379;-75
2021/12/03 04:23:39;;;;;;;71.05;26.38;;;0.50;99.90;;;;;;5053495;28;20477;-75
2021/12/03 04:26:05;;;;;;;74.65;28.10;;;0.50;99.90;;;;;;5053920;28;20104;-76
2021/12/03 04:28:31;;;;;;;86.20;28.98;;;0.40;99.90;;;;;;5054087;28;20036;-75
2021/12/03 04:30:57;;;;;;;71.25;28.17;;;0.50;99.90;;;;;;5052738;28;20032;-75
2021/12/03 04:33:22;;;;;;;84.28;31.55;;;0.40;99.90;;;;;;5053908;28;20502;-75
2021/12/03 04:35:49;;;;;;;85.55;32.22;;;0.40;99.90;;;;;;5053831;28;20091;-75
2021/12/03 04:38:15;;;;;;;97.43;32.45;;;0.40;99.90;;;;;;5053423;28;20060;-75
2021/12/03 04:40:42;;;;;;;89.88;33.92;;;0.40;99.90;;;;;;5053557;28;20106;-75
2021/12/03 04:43:08;;;;;;;96.93;33.10;;;0.40;99.90;;;;;;5053637;28;20305;-75
2021/12/03 04:45:34;;;;;;;100.10;36.60;;;0.40;99.90;;;;;;5053682;28;20035;-75
2021/12/03 04:48:02;;;;;;;107.35;35.50;;;0.50;99.90;;;;;;5053529;28;20100;-75
2021/12/03 04:50:32;;;;;;;107.75;36.17;;;0.50;99.90;;;;;;5049313;28;20024;-75
2021/12/03 04:52:58;;;;;;;107.63;37.45;;;0.50;99.90;;;;;;5052134;28;20387;-75
2021/12/03 04:55:24;;;;;;;98.07;35.97;;;0.40;99.90;;;;;;5053314;28;20075;-75
2021/12/03 04:57:53;;;;;;;102.60;39.75;;;0.40;99.90;;;;;;5052302;28;20335;-75
2021/12/03 05:00:28;;;;;;;117.43;39.30;;;0.50;99.90;;;;;;5053236;28;20078;-75
2021/12/03 05:02:55;;;;;;;124.50;41.78;;;0.50;99.90;;;;;;5051589;28;20059;-75
2021/12/03 05:05:23;;;;;;;118.93;40.63;;;0.60;99.90;;;;;;5053046;28;20025;-75
2021/12/03 05:07:57;;;;;;;142.52;44.85;;;0.60;99.90;;;;;;5053207;28;20094;-75
2021/12/03 05:10:28;;;;;;;123.78;42.03;;;0.60;99.90;;;;;;5053248;28;20036;-75
2021/12/03 05:13:00;;;;;;;126.70;43.22;;;0.70;99.90;;;;;;5052968;28;20051;-75
2021/12/03 05:15:26;;;;;;;116.13;42.28;;;0.70;99.90;;;;;;5053084;28;20017;-75
2021/12/03 05:17:52;;;;;;;110.75;42.10;;;0.90;99.90;;;;;;5052756;28;20363;-75
2021/12/03 05:20:18;;;;;;;111.45;43.45;;;1.00;99.90;;;;;;5052374;28;20021;-76
2021/12/03 05:22:43;;;;;;;109.90;44.90;;;1.10;99.90;;;;;;5049323;28;20458;-75
2021/12/03 05:25:09;;;;;;;112.45;42.53;;;1.10;99.90;;;;;;5051372;28;20531;-75
2021/12/03 05:27:35;;;;;;;120.50;46.28;;;1.10;99.90;;;;;;5052687;28;20082;-75
2021/12/03 05:30:02;;;;;;;104.50;43.72;;;1.10;99.90;;;;;;5052588;28;20112;-75
2021/12/03 05:32:27;;;;;;;115.97;44.45;;;1.20;99.90;;;;;;5053038;28;20108;-75
2021/12/03 05:34:53;;;;;;;119.68;44.42;;;1.20;99.90;;;;;;5052818;28;20163;-75
2021/12/03 05:37:19;;;;;;;112.72;43.28;;;1.20;99.90;;;;;;5052688;28;20041;-75
2021/12/03 05:39:44;;;;;;;113.90;44.20;;;1.30;99.90;;;;;;5052740;28;20064;-75
2021/12/03 05:42:10;;;;;;;108.30;43.00;;;1.30;99.90;;;;;;5052441;28;20092;-75
2021/12/03 05:44:35;;;;;;;113.28;43.58;;;1.40;99.90;;;;;;5052553;28;20025;-75
2021/12/03 05:47:01;;;;;;;99.03;38.88;;;1.40;99.90;;;;;;5052966;28;20470;-76
2021/12/03 05:49:27;;;;;;;114.00;40.60;;;1.40;99.90;;;;;;5051385;28;20021;-75
2021/12/03 05:51:53;;;;;;;97.57;39.75;;;1.50;99.90;;;;;;5051876;28;20033;-75
2021/12/03 05:54:20;;;;;;;104.13;40.53;;;1.50;99.90;;;;;;5050922;28;20443;-75
2021/12/03 05:56:46;;;;;;;91.78;36.03;;;1.50;99.90;;;;;;5052534;28;20049;-75
2021/12/03 05:59:11;;;;;;;98.72;37.97;;;1.60;99.90;;;;;;5052385;28;20072;-75
2021/12/03 06:01:37;;;;;;;112.07;42.65;;;1.70;99.90;;;;;;5052322;28;20041;-75
2021/12/03 06:04:03;;;;;;;115.70;41.95;;;1.70;99.90;;;;;;5052547;28;20025;-75
2021/12/03 06:06:28;;;;;;;82.00;35.55;;;1.60;99.90;;;;;;5052457;28;20100;-75
2021/12/03 06:08:54;;;;;;;92.45;37.58;;;1.70;99.90;;;;;;5052490;28;20032;-75
2021/12/03 06:11:20;;;;;;;94.72;39.58;;;1.70;99.90;;;;;;5052495;28;20021;-75
2021/12/03 06:13:45;;;;;;;94.18;36.58;;;1.80;99.90;;;;;;5052379;28;20049;-75
2021/12/03 06:16:13;;;;;;;85.95;36.35;;;1.80;99.90;;;;;;5052393;28;20025;-75
2021/12/03 06:18:39;;;;;;;98.68;38.70;;;1.80;99.90;;;;;;5049468;28;20705;-75
2021/12/03 06:21:07;;;;;;;111.75;38.15;;;1.80;99.90;;;;;;5050881;28;20020;-75
2021/12/03 06:23:33;;;;;;;80.47;36.50;;;1.80;99.90;;;;;;5052032;28;20068;-75
2021/12/03 06:26:00;;;;;;;98.05;36.95;;;1.80;99.90;;;;;;5052511;28;20470;-75
2021/12/03 06:28:27;;;;;;;94.35;35.38;;;1.90;99.90;;;;;;5048997;28;20440;-75
2021/12/03 06:30:53;;;;;;;82.60;32.67;;;1.80;99.90;;;;;;5052378;28;20025;-75
2021/12/03 06:33:19;;;;;;;91.07;34.35;;;1.90;99.90;;;;;;5033015;28;20021;-76
2021/12/03 06:35:46;;;;;;;96.38;37.03;;;1.90;99.90;;;;;;5052004;28;20031;-75
2021/12/03 06:38:12;;;;;;;73.72;29.95;;;1.90;99.90;;;;;;5052224;28;20462;-75
2021/12/03 06:40:37;;;;;;;78.82;31.67;;;2.00;99.90;;;;;;5052331;28;20120;-75
2021/12/03 06:43:03;;;;;;;73.05;28.95;;;2.00;99.90;;;;;;5052405;28;20025;-75
2021/12/03 06:45:29;;;;;;;85.22;28.33;;;2.10;99.90;;;;;;5052450;28;20036;-75
2021/12/03 06:47:55;;;;;;;73.75;26.77;;;2.10;99.90;;;;;;5052560;28;20021;-76
2021/12/03 06:50:21;;;;;;;73.55;27.20;;;2.10;99.90;;;;;;5044416;28;20029;-75
2021/12/03 06:52:55;;;;;;;83.55;26.92;;;2.20;99.90;;;;;;5044678;28;20025;-75
2021/12/03 06:55:21;;;;;;;72.63;24.58;;;2.30;99.90;;;;;;5052029;28;20347;-75
2021/12/03 06:57:47;;;;;;;71.30;24.48;;;2.30;99.90;;;;;;5050686;28;20111;-76
2021/12/03 07:00:15;;;;;;;77.68;24.50;;;2.40;99.90;;;;;;5051669;28;20204;-75
2021/12/03 07:02:41;;;;;;;75.07;23.52;;;2.40;99.90;;;;;;5051546;28;20079;-75
2021/12/03 07:05:08;;;;;;;66.55;22.83;;;2.40;99.90;;;;;;5048482;28;20029;-75
2021/12/03 07:07:34;;;;;;;80.22;23.08;;;2.40;99.90;;;;;;5050643;28;20036;-75
2021/12/03 07:10:02;;;;;;;67.45;20.77;;;2.40;99.90;;;;;;5052007;28;20391;-75
2021/12/03 07:12:28;;;;;;;63.85;20.30;;;2.50;99.90;;;;;;5051457;28;20171;-75
2021/12/03 07:14:53;;;;;;;60.92;20.88;;;2.50;99.90;;;;;;5051478;28;20503;-75
2021/12/03 07:17:19;;;;;;;56.17;19.15;;;2.50;99.90;;;;;;5051711;28;20032;-75
2021/12/03 07:19:45;;;;;;;51.95;17.13;;;2.60;99.90;;;;;;5051615;28;20025;-75
2021/12/03 07:22:10;;;;;;;62.65;17.13;;;2.60;99.90;;;;;;5051891;28;20474;-75
2021/12/03 07:24:36;;;;;;;46.92;15.18;;;2.60;99.90;;;;;;5032339;28;20040;-75
2021/12/03 07:27:02;;;;;;;48.60;14.43;;;2.60;99.90;;;;;;5031867;28;20022;-75
2021/12/03 07:29:28;;;;;;;42.90;14.13;;;2.70;99.90;;;;;;5032108;28;20030;-75
2021/12/03 07:31:54;;;;;;;42.22;12.52;;;2.70;99.90;;;;;;5037621;28;20123;-75
2021/12/03 07:34:20;;;;;;;38.20;11.70;;;2.70;99.90;;;;;;5051712;28;20433;-75
2021/12/03 07:36:46;;;;;;;37.85;11.18;;;2.70;99.90;;;;;;5051619;28;20027;-75
2021/12/03 07:39:11;;;;;;;43.17;11.55;;;2.80;99.90;;;;;;5051474;28;20045;-75
2021/12/03 07:41:40;;;;;;;36.42;11.25;;;2.80;99.90;;;;;;5051649;28;20104;-75
2021/12/03 07:44:07;;;;;;;43.05;11.35;;;2.70;99.90;;;;;;5050810;28;20406;-75
2021/12/03 07:46:33;;;;;;;33.95;10.70;;;2.70;99.90;;;;;;5051765;28;20039;-75
2021/12/03 07:48:59;;;;;;;26.58;9.55;;;2.80;99.90;;;;;;5053650;28;20025;-75
2021/12/03 07:51:26;;;;;;;33.40;9.70;;;2.70;99.90;;;;;;5052829;28;20445;-75
2021/12/03 07:53:52;;;;;;;35.50;10.00;;;2.80;99.90;;;;;;5054912;28;20359;-75
2021/12/03 07:56:17;;;;;;;30.65;9.57;;;2.80;99.90;;;;;;5054613;28;20025;-75
2021/12/03 07:58:43;;;;;;;29.30;8.25;;;2.80;99.90;;;;;;5054507;28;20035;-75
2021/12/03 08:01:09;;;;;;;35.83;8.90;;;2.80;99.90;;;;;;5054384;28;20021;-75
2021/12/03 08:03:34;;;;;;;27.83;7.72;;;2.80;99.90;;;;;;5054898;28;20025;-75
2021/12/03 08:06:06;;;;;;;24.48;8.55;;;2.80;99.90;;;;;;5054607;28;20025;-75
2021/12/03 08:08:32;;;;;;;24.85;7.30;;;2.80;99.90;;;;;;5052490;28;20013;-75
2021/12/03 08:10:57;;;;;;;29.13;7.45;;;2.80;99.90;;;;;;5054572;28;20408;-74
2021/12/03 08:13:23;;;;;;;29.60;7.78;;;2.80;99.90;;;;;;5054394;28;20060;-74
2021/12/03 08:15:49;;;;;;;37.13;7.13;;;2.80;99.90;;;;;;5054321;28;20033;-74
2021/12/03 08:18:15;;;;;;;28.30;6.97;;;2.80;99.90;;;;;;5054285;28;20040;-74
2021/12/03 08:20:40;;;;;;;30.83;8.43;;;2.80;99.90;;;;;;5054106;28;20021;-75
2021/12/03 08:23:06;;;;;;;40.22;8.35;;;2.80;99.90;;;;;;5052941;28;20116;-75
2021/12/03 08:25:32;;;;;;;38.22;8.20;;;2.80;99.90;;;;;;5053714;28;20025;-74
2021/12/03 08:28:01;;;;;;;26.98;8.02;;;2.80;99.90;;;;;;5052713;28;20355;-74
2021/12/03 08:30:29;;;;;;;28.65;7.05;;;2.80;99.90;;;;;;5054033;28;20072;-74
2021/12/03 08:32:56;;;;;;;38.63;8.15;;;2.90;99.90;;;;;;5053921;28;20057;-74
2021/12/03 08:35:22;;;;;;;32.95;9.85;;;2.90;99.90;;;;;;5054089;28;20533;-74
2021/12/03 08:37:49;;;;;;;31.60;7.97;;;2.90;99.90;;;;;;5053830;28;20075;-74
2021/12/03 08:40:16;;;;;;;32.45;7.90;;;2.90;99.90;;;;;;5053901;28;20033;-75
2021/12/03 08:42:41;;;;;;;34.80;7.45;;;3.00;99.90;;;;;;5054018;28;20017;-75
2021/12/03 08:45:08;;;;;;;36.65;8.00;;;2.90;99.90;;;;;;5053582;28;20087;-76
2021/12/03 08:47:38;;;;;;;34.97;6.88;;;3.00;99.90;;;;;;5053815;28;20490;-78
2021/12/03 08:50:10;;;;;;;34.50;7.40;;;3.00;99.90;;;;;;5049088;28;20372;-74
2021/12/03 08:55:01;;;;;;;21.25;5.57;;;3.00;99.90;;;;;;5034193;28;20033;-79
2021/12/03 08:57:34;;;;;;;27.52;6.07;;;3.10;99.90;;;;;;5033721;28;20025;-77
2021/12/03 09:00:13;;;;;;;30.33;6.18;;;3.20;99.90;;;;;;5037570;28;21425;-76
2021/12/03 09:02:40;;;;;;;22.75;5.93;;;3.20;99.90;;;;;;5041424;28;20041;-77
2021/12/03 09:05:07;;;;;;;25.70;5.03;;;3.20;99.90;;;;;;5051510;28;20017;-77
2021/12/03 09:07:33;;;;;;;20.70;5.80;;;3.20;99.90;;;;;;5048571;28;20033;-78
2021/12/03 09:09:59;;;;;;;24.67;5.15;;;3.20;99.90;;;;;;5050559;28;20013;-77
2021/12/03 09:12:24;;;;;;;32.72;5.25;;;3.30;99.90;;;;;;5047546;28;20801;-77
2021/12/03 09:14:59;;;;;;;23.90;5.03;;;3.30;99.90;;;;;;5041267;28;20029;-77
2021/12/03 09:22:34;;;;;;;23.60;5.32;;;3.20;99.90;;;;;;5040744;28;20099;-77
2021/12/03 09:25:00;;;;;;;20.17;5.00;;;3.20;99.90;;;;;;5048280;28;20833;-77
2021/12/03 09:27:27;;;;;;;16.60;3.63;;;3.30;99.90;;;;;;5055043;28;20433;-77
2021/12/03 09:29:55;;;;;;;18.20;4.18;;;3.40;99.90;;;;;;5054516;28;20029;-77
2021/12/03 09:32:25;;;;;;;19.30;3.83;;;3.40;99.90;;;;;;5052680;28;20499;-77
2021/12/03 09:34:51;;;;;;;18.42;4.45;;;3.40;99.90;;;;;;5032988;28;20029;-77
2021/12/03 09:37:17;;;;;;;21.05;4.50;;;3.40;99.90;;;;;;5046311;28;20183;-77
2021/12/03 09:39:45;;;;;;;21.88;4.70;;;3.40;99.90;;;;;;5045735;28;20033;-78
2021/12/03 09:42:12;;;;;;;20.83;4.40;;;3.40;99.90;;;;;;5051211;28;20522;-76
2021/12/03 09:44:39;;;;;;;24.08;4.38;;;3.40;99.90;;;;;;5050361;28;20024;-77
2021/12/03 09:47:06;;;;;;;15.05;3.85;;;3.40;99.90;;;;;;5053269;28;20048;-77
2021/12/03 09:49:34;;;;;;;16.13;3.95;;;3.50;99.90;;;;;;5049984;28;20449;-77
2021/12/03 09:54:48;;;;;;;18.33;3.70;;;3.60;99.90;;;;;;5050791;28;20063;-74
2021/12/03 09:57:35;;;;;;;16.10;3.85;;;3.60;99.90;;;;;;5052347;28;20055;-77
2021/12/03 10:02:52;;;;;;;18.52;3.83;;;3.70;99.90;;;;;;5050312;28;20009;-77
2021/12/03 10:16:08;;;;;;;16.13;4.55;;;3.90;99.90;;;;;;5044880;28;20025;-77
2021/12/03 10:18:48;;;;;;;13.05;4.35;;;4.00;99.90;;;;;;5047769;28;20060;-77
2021/12/03 10:21:57;;;;;;;11.65;3.53;;;4.00;99.90;;;;;;5050112;28;20013;-77
2021/12/03 10:30:14;;;;;;;14.55;3.10;;;4.00;99.90;;;;;;5025536;28;20392;-76
2021/12/03 10:33:11;;;;;;;21.65;3.10;;;4.00;99.90;;;;;;5019280;28;20037;-76
2021/12/03 10:43:23;;;;;;;15.10;3.50;;;3.80;99.90;;;;;;5018419;28;20034;-76
2021/12/03 10:46:21;;;;;;;13.82;4.05;;;3.80;99.90;;;;;;5026028;28;20041;-76
2021/12/03 10:54:25;;;;;;;19.65;3.88;;;3.60;99.90;;;;;;5025124;28;20531;-76
2021/12/03 10:56:52;;;;;;;21.60;4.32;;;3.50;99.90;;;;;;5026482;28;20068;-77
2021/12/03 12:21:13;;;;;;;13.02;4.63;;;4.70;99.90;;;;;;5011738;28;20124;-73
2021/12/03 13:16:58;;;;;;;10.63;2.80;;;5.00;99.90;;;;;;4972041;28;20047;-74
2021/12/03 13:19:39;;;;;;;11.93;3.58;;;5.00;99.90;;;;;;4972066;28;20277;-74
2021/12/03 14:51:27;;;;;;;11.70;5.35;;;4.40;99.90;;;;;;4969819;28;20073;-76
2021/12/03 14:56:46;;;;;;;11.63;5.72;;;4.40;99.90;;;;;;5012121;28;20029;-74
2021/12/03 14:59:29;;;;;;;14.45;5.88;;;4.40;99.90;;;;;;5013625;28;20843;-75
2021/12/03 15:09:42;;;;;;;20.60;7.32;;;4.30;99.90;;;;;;5012931;28;20104;-75
2021/12/03 15:20:37;;;;;;;18.48;9.00;;;4.20;99.90;;;;;;5025763;28;20561;-76
2021/12/03 15:23:27;;;;;;;16.10;8.93;;;4.20;99.90;;;;;;5041245;28;20025;-76
2021/12/03 15:34:51;;;;;;;18.05;10.40;;;4.20;99.90;;;;;;5032546;28;20193;-75
2021/12/03 15:37:04;;;;;;;23.35;11.63;;;4.20;99.90;;;;;;5015324;28;20456;-75
2021/12/03 16:06:31;;;;;;;20.92;12.15;;;4.20;99.90;;;;;;5054077;28;20053;-75
2021/12/03 16:09:28;;;;;;;18.95;12.30;;;4.20;99.90;;;;;;5052201;28;20013;-75
2021/12/03 16:11:56;;;;;;;17.67;12.07;;;4.20;99.90;;;;;;5051957;28;20060;-76
2021/12/03 16:14:52;;;;;;;18.77;12.30;;;4.30;99.90;;;;;;5051758;28;20024;-75
2021/12/03 16:51:54;;;;;;;16.48;12.75;;;4.40;99.90;;;;;;4957332;28;20641;-75
2021/12/03 16:54:41;;;;;;;21.75;14.40;;;4.40;99.90;;;;;;4949878;28;20035;-75
2021/12/03 16:57:08;;;;;;;18.40;14.40;;;4.50;99.90;;;;;;4957222;28;20030;-75
2021/12/03 16:59:34;;;;;;;23.67;13.55;;;4.50;99.90;;;;;;4960579;28;20050;-79
2021/12/03 17:02:09;;;;;;;16.95;12.52;;;4.50;99.90;;;;;;4953206;28;20042;-76
2021/12/03 17:53:26;;;;;;;23.55;15.45;;;4.70;99.90;;;;;;5046684;28;20047;-75
2021/12/03 17:58:32;;;;;;;20.42;14.15;;;4.70;99.90;;;;;;5045066;28;20816;-75
2021/12/03 18:06:14;;;;;;;19.20;15.40;;;4.60;99.90;;;;;;5045427;28;20036;-75
2021/12/03 18:17:00;;;;;;;19.52;14.73;;;4.70;99.90;;;;;;5045192;28;20116;-76
2021/12/03 18:54:24;;;;;;;23.60;16.48;;;4.70;99.90;;;;;;5047693;28;20075;-75
2021/12/03 18:56:52;;;;;;;19.00;13.45;;;4.70;99.90;;;;;;5048788;28;20109;-75
2021/12/03 18:59:18;;;;;;;17.10;13.73;;;4.70;99.90;;;;;;5047003;28;20442;-76
2021/12/03 19:01:44;;;;;;;18.85;13.18;;;4.70;99.90;;;;;;5048281;28;20033;-76
2021/12/03 19:04:32;;;;;;;19.20;14.93;;;4.70;99.90;;;;;;5048531;28;20025;-76
2021/12/03 19:09:28;;;;;;;19.48;12.98;;;4.60;99.90;;;;;;5045904;28;20029;-75
2021/12/03 19:14:21;;;;;;;23.65;15.25;;;4.70;99.90;;;;;;5046708;28;20025;-75
2021/12/03 19:16:49;;;;;;;21.73;15.38;;;4.70;99.90;;;;;;5047986;28;20017;-75
2021/12/03 19:19:16;;;;;;;18.50;14.13;;;4.70;99.90;;;;;;5042301;28;20034;-75
2021/12/03 19:21:44;;;;;;;22.30;15.68;;;4.70;99.90;;;;;;5048239;28;20017;-76
2021/12/03 19:24:13;;;;;;;21.75;14.43;;;4.70;99.90;;;;;;5046748;28;20013;-76
2021/12/03 19:26:43;;;;;;;24.25;16.88;;;4.70;99.90;;;;;;5048997;28;20029;-74
2021/12/03 19:29:12;;;;;;;23.42;16.30;;;4.70;99.90;;;;;;5044230;28;20111;-75
2021/12/03 19:31:38;;;;;;;23.98;15.90;;;4.70;99.90;;;;;;5044428;28;20055;-75
2021/12/03 19:34:04;;;;;;;25.95;16.98;;;4.60;99.90;;;;;;5046381;28;20056;-74
2021/12/03 19:36:32;;;;;;;23.40;16.20;;;4.70;99.90;;;;;;5038521;28;20067;-74
2021/12/03 19:38:59;;;;;;;24.67;17.75;;;4.70;99.90;;;;;;5041343;28;20041;-73
2021/12/03 19:44:14;;;;;;;26.08;17.52;;;4.70;99.90;;;;;;5051633;28;20027;-74
2021/12/03 19:46:45;;;;;;;24.92;17.08;;;4.70;99.90;;;;;;5055600;28;20028;-74
2021/12/03 19:51:54;;;;;;;26.98;17.10;;;4.70;99.90;;;;;;5058467;28;20033;-77
2021/12/03 19:54:22;;;;;;;23.17;14.98;;;4.70;99.90;;;;;;5060819;28;20024;-76
2021/12/03 19:56:49;;;;;;;23.90;16.17;;;4.60;99.90;;;;;;5047925;28;20029;-77
2021/12/03 19:59:16;;;;;;;26.83;14.85;;;4.70;99.90;;;;;;5063640;28;20024;-77
2021/12/03 20:01:42;;;;;;;23.35;15.30;;;4.60;99.90;;;;;;5048177;28;20017;-76
2021/12/03 20:04:09;;;;;;;22.52;14.55;;;4.60;99.90;;;;;;5062344;28;20028;-76
2021/12/03 20:06:41;;;;;;;17.67;12.70;;;4.70;99.90;;;;;;5051336;28;20033;-77
2021/12/03 20:09:08;;;;;;;23.80;15.20;;;4.60;99.90;;;;;;5039876;28;20025;-77
2021/12/03 20:11:43;;;;;;;21.67;14.55;;;4.70;99.90;;;;;;5055470;28;20025;-77
2021/12/03 20:14:12;;;;;;;20.42;14.10;;;4.70;99.90;;;;;;5039933;28;20131;-77
2021/12/03 20:16:43;;;;;;;20.10;13.85;;;4.70;99.90;;;;;;5053694;28;20039;-76
2021/12/03 20:19:23;;;;;;;22.83;14.35;;;4.70;99.90;;;;;;5051564;28;20013;-76
2021/12/03 20:27:41;;;;;;;21.80;15.00;;;4.70;99.90;;;;;;5066667;28;19908;-75
2021/12/03 20:30:14;;;;;;;21.05;14.68;;;4.70;99.90;;;;;;5083093;28;20048;-76
2021/12/03 20:32:47;;;;;;;22.05;14.55;;;4.70;99.90;;;;;;5058999;28;20048;-76